Time;durP1;ratioP1;P1;durP2;ratioP2;P2;SDS_P1;SDS_P2;PMS_P1;PMS_P2;Temp;Humidity;BMP_temperature;BMP_pressure;BME280_temperature;BME280_humidity;BME280_pressure;Samples;Min_cycle;Max_cycle;Signal;HPM_P1;HPM_P2
2021/12/28 00:01:27;;;;;;;22.85;16.63;;;4.10;99.90;;;;;;5096846;28;20130;-81
2021/12/28 00:03:53;;;;;;;22.40;17.23;;;4.10;99.90;;;;;;5098054;28;20044;-82
2021/12/28 00:06:20;;;;;;;22.13;15.60;;;4.10;99.90;;;;;;5081263;28;20086;-82
2021/12/28 00:08:47;;;;;;;25.90;17.83;;;4.20;99.90;;;;;;5098863;28;20056;-82
2021/12/28 00:11:13;;;;;;;25.13;17.30;;;4.20;99.90;;;;;;5098045;28;20091;-83
2021/12/28 00:13:40;;;;;;;26.15;17.08;;;4.20;99.90;;;;;;5110866;28;20090;-82
2021/12/28 00:18:36;;;;;;;22.65;17.77;;;4.30;99.90;;;;;;5110741;28;20044;-83
2021/12/28 00:21:04;;;;;;;25.25;16.83;;;4.30;99.90;;;;;;5109899;28;20055;-81
2021/12/28 00:23:37;;;;;;;27.02;17.52;;;4.30;99.90;;;;;;5110679;28;20066;-83
2021/12/28 00:26:04;;;;;;;24.23;18.45;;;4.30;99.90;;;;;;5110055;28;20036;-81
2021/12/28 00:28:29;;;;;;;29.60;18.75;;;4.30;99.90;;;;;;5110272;28;20037;-82
2021/12/28 00:30:55;;;;;;;32.13;21.48;;;4.30;99.90;;;;;;5093999;28;20039;-82
2021/12/28 00:33:23;;;;;;;31.55;20.75;;;4.30;99.90;;;;;;5110127;28;20036;-83
2021/12/28 00:35:49;;;;;;;32.75;23.00;;;4.30;99.90;;;;;;5094564;28;20046;-82
2021/12/28 00:38:18;;;;;;;38.63;24.52;;;4.30;99.90;;;;;;5091933;28;20413;-82
2021/12/28 00:40:45;;;;;;;38.50;25.95;;;4.30;99.90;;;;;;5095790;28;20040;-81
2021/12/28 00:43:11;;;;;;;38.70;25.42;;;4.30;99.90;;;;;;5095105;28;20082;-81
2021/12/28 00:45:37;;;;;;;39.42;25.98;;;4.20;99.90;;;;;;5096262;28;20048;-82
2021/12/28 00:48:03;;;;;;;42.58;28.15;;;4.30;99.90;;;;;;5096245;28;20028;-82
2021/12/28 00:50:29;;;;;;;45.05;28.35;;;4.30;99.90;;;;;;5095910;28;20047;-82
2021/12/28 00:52:55;;;;;;;42.42;28.73;;;4.30;99.90;;;;;;5093253;28;20028;-83
2021/12/28 00:55:21;;;;;;;42.70;27.70;;;4.30;99.90;;;;;;5101230;28;20040;-82
2021/12/28 00:57:48;;;;;;;40.92;26.73;;;4.20;99.90;;;;;;5083289;28;20075;-81
2021/12/28 01:00:18;;;;;;;48.67;27.55;;;4.30;99.90;;;;;;5100159;28;20035;-81
2021/12/28 01:02:44;;;;;;;42.40;28.60;;;4.30;99.90;;;;;;5095545;28;20036;-82
2021/12/28 01:05:10;;;;;;;46.67;28.77;;;4.30;99.90;;;;;;5092691;28;20552;-82
2021/12/28 01:07:36;;;;;;;47.00;29.10;;;4.30;99.90;;;;;;5092409;28;20064;-81
2021/12/28 01:10:04;;;;;;;54.45;30.15;;;4.30;99.90;;;;;;5092900;28;20067;-81
2021/12/28 01:12:30;;;;;;;44.90;28.60;;;4.30;99.90;;;;;;5092443;28;20065;-81
2021/12/28 01:14:55;;;;;;;53.05;33.25;;;4.20;99.90;;;;;;5092667;28;20040;-81
2021/12/28 01:17:21;;;;;;;50.17;32.60;;;4.20;99.90;;;;;;5092593;28;20032;-81
2021/12/28 01:19:47;;;;;;;53.33;33.45;;;4.30;99.90;;;;;;5092411;28;20422;-81
2021/12/28 01:22:13;;;;;;;56.95;35.20;;;4.30;99.90;;;;;;5091724;28;20040;-82
2021/12/28 01:24:38;;;;;;;54.67;35.13;;;4.40;99.90;;;;;;5092074;28;20044;-81
2021/12/28 01:27:04;;;;;;;57.15;35.50;;;4.50;99.90;;;;;;5091957;28;20032;-81
2021/12/28 01:29:30;;;;;;;64.70;35.60;;;4.50;99.90;;;;;;5094752;28;20040;-81
2021/12/28 01:31:55;;;;;;;63.20;38.50;;;4.60;99.90;;;;;;5078651;28;20380;-82
2021/12/28 01:34:21;;;;;;;65.85;40.22;;;4.60;99.90;;;;;;5078753;28;20040;-82
2021/12/28 01:36:47;;;;;;;69.38;40.88;;;4.60;99.90;;;;;;5078498;28;20040;-82
2021/12/28 01:39:13;;;;;;;74.47;42.58;;;4.60;99.90;;;;;;5095162;28;20040;-82
2021/12/28 01:41:39;;;;;;;99.88;51.33;;;4.60;99.90;;;;;;5095111;28;20036;-82
2021/12/28 01:44:08;;;;;;;84.90;47.25;;;4.70;99.90;;;;;;5095047;28;20486;-81
2021/12/28 01:46:35;;;;;;;80.47;47.20;;;4.70;99.90;;;;;;5078430;28;20042;-82
2021/12/28 01:49:02;;;;;;;91.15;49.13;;;4.60;99.90;;;;;;5095604;28;20098;-82
2021/12/28 01:51:28;;;;;;;85.35;47.35;;;4.70;99.90;;;;;;5079040;28;20032;-81
2021/12/28 01:53:57;;;;;;;96.13;50.05;;;4.70;99.90;;;;;;5094776;28;20143;-82
2021/12/28 01:56:34;;;;;;;93.78;50.25;;;4.60;99.90;;;;;;5095401;28;20048;-81
2021/12/28 01:59:00;;;;;;;107.68;58.33;;;4.70;99.90;;;;;;5095498;28;20070;-82
2021/12/28 02:01:26;;;;;;;106.93;54.25;;;4.70;99.90;;;;;;5095061;28;20119;-81
2021/12/28 02:03:52;;;;;;;142.63;67.70;;;4.70;99.90;;;;;;5095368;28;20388;-82
2021/12/28 02:06:18;;;;;;;100.50;59.40;;;4.70;99.90;;;;;;5094979;28;20051;-82
2021/12/28 02:08:44;;;;;;;136.55;67.53;;;4.70;99.90;;;;;;5095662;28;20071;-82
2021/12/28 02:11:12;;;;;;;216.38;89.28;;;4.70;99.90;;;;;;5094943;28;20059;-81
2021/12/28 02:13:38;;;;;;;199.48;86.07;;;4.70;99.90;;;;;;5078791;28;20043;-82
2021/12/28 02:16:04;;;;;;;199.13;86.78;;;4.70;99.90;;;;;;5094894;28;20043;-81
2021/12/28 02:18:31;;;;;;;200.73;84.30;;;4.70;99.90;;;;;;5095577;28;20040;-81
2021/12/28 02:20:59;;;;;;;224.18;92.53;;;4.70;99.90;;;;;;5094470;28;20371;-81
2021/12/28 02:23:25;;;;;;;286.67;106.18;;;4.70;99.90;;;;;;5090703;28;20036;-81
2021/12/28 02:25:51;;;;;;;359.30;128.60;;;4.60;99.90;;;;;;5076592;28;20104;-81
2021/12/28 02:28:17;;;;;;;235.63;92.15;;;4.70;99.90;;;;;;5095216;28;20032;-81
2021/12/28 02:30:49;;;;;;;245.65;94.18;;;4.60;99.90;;;;;;5076212;28;20119;-82
2021/12/28 02:33:17;;;;;;;268.42;101.35;;;4.60;99.90;;;;;;5094743;28;20067;-81
2021/12/28 02:35:43;;;;;;;279.30;108.13;;;4.60;99.90;;;;;;5094158;28;20526;-80
2021/12/28 02:38:10;;;;;;;245.73;97.72;;;4.60;99.90;;;;;;5095157;28;20044;-81
2021/12/28 02:40:39;;;;;;;428.63;137.75;;;4.60;99.90;;;;;;5094006;28;20040;-81
2021/12/28 02:43:06;;;;;;;270.88;102.65;;;4.60;99.90;;;;;;5094433;28;20081;-81
2021/12/28 02:45:38;;;;;;;304.10;111.18;;;4.50;99.90;;;;;;5077133;28;20050;-80
2021/12/28 02:48:05;;;;;;;285.65;105.45;;;4.60;99.90;;;;;;5093575;28;20094;-81
2021/12/28 02:50:35;;;;;;;214.20;88.93;;;4.70;99.90;;;;;;5094430;28;20506;-80
2021/12/28 02:53:01;;;;;;;293.75;110.50;;;4.70;99.90;;;;;;5088763;28;20032;-81
2021/12/28 02:55:30;;;;;;;219.05;90.53;;;4.70;99.90;;;;;;5094769;28;20123;-81
2021/12/28 02:58:11;;;;;;;229.23;94.13;;;4.90;99.90;;;;;;5093070;28;20040;-81
2021/12/28 03:00:48;;;;;;;215.73;93.55;;;4.90;99.90;;;;;;5093945;28;20043;-81
2021/12/28 03:03:17;;;;;;;245.52;95.00;;;4.90;99.90;;;;;;5076101;28;20044;-81
2021/12/28 03:05:45;;;;;;;230.77;100.53;;;4.80;99.90;;;;;;5093340;28;20417;-81
2021/12/28 03:08:12;;;;;;;289.08;110.90;;;4.90;99.90;;;;;;5093003;28;20043;-81
2021/12/28 03:10:39;;;;;;;229.23;98.40;;;4.90;99.90;;;;;;5076892;28;20123;-81
2021/12/28 03:13:05;;;;;;;247.48;99.75;;;4.90;99.90;;;;;;5093756;28;20032;-81
2021/12/28 03:15:32;;;;;;;282.05;106.07;;;4.90;99.90;;;;;;5093228;28;20044;-81
2021/12/28 03:17:57;;;;;;;226.15;91.20;;;4.90;99.90;;;;;;5093793;28;20043;-81
2021/12/28 03:20:23;;;;;;;271.55;105.32;;;4.90;99.90;;;;;;5092913;28;20521;-81
2021/12/28 03:22:49;;;;;;;246.10;98.88;;;4.90;99.90;;;;;;5076765;28;20099;-81
2021/12/28 03:25:15;;;;;;;224.13;95.70;;;4.90;99.90;;;;;;5092207;28;20119;-81
2021/12/28 03:27:42;;;;;;;275.15;105.45;;;4.90;99.90;;;;;;5076750;28;20078;-81
2021/12/28 03:30:11;;;;;;;218.63;88.07;;;4.90;99.90;;;;;;5092212;28;20036;-81
2021/12/28 03:32:36;;;;;;;201.32;84.15;;;4.90;99.90;;;;;;5077030;28;20032;-81
2021/12/28 03:35:05;;;;;;;221.18;96.30;;;4.90;99.90;;;;;;5092648;28;20040;-81
2021/12/28 03:37:31;;;;;;;214.32;87.35;;;4.90;99.90;;;;;;5094070;28;20573;-80
2021/12/28 03:39:57;;;;;;;201.18;88.03;;;4.90;99.90;;;;;;5091968;28;20044;-81
2021/12/28 03:42:23;;;;;;;314.55;115.68;;;4.90;99.90;;;;;;5076939;28;20040;-81
2021/12/28 03:44:49;;;;;;;283.77;111.18;;;4.80;99.90;;;;;;5092005;28;20124;-81
2021/12/28 03:47:14;;;;;;;264.17;105.78;;;4.80;99.90;;;;;;5076138;28;20032;-81
2021/12/28 03:49:40;;;;;;;267.33;100.05;;;4.70;99.90;;;;;;5092357;28;20440;-81
2021/12/28 03:52:06;;;;;;;163.77;73.05;;;4.70;99.90;;;;;;5075479;28;20028;-81
2021/12/28 03:54:33;;;;;;;245.73;100.90;;;4.70;99.90;;;;;;5092651;28;20455;-81
2021/12/28 03:57:00;;;;;;;248.70;95.68;;;4.70;99.90;;;;;;5075591;28;20039;-81
2021/12/28 03:59:26;;;;;;;264.58;106.90;;;4.60;99.90;;;;;;5093221;28;20054;-80
2021/12/28 04:01:52;;;;;;;258.85;98.18;;;4.60;99.90;;;;;;5091950;28;20510;-81
2021/12/28 04:04:19;;;;;;;287.35;110.70;;;4.60;99.90;;;;;;5092928;28;20118;-80
2021/12/28 04:06:44;;;;;;;385.05;123.82;;;4.60;99.90;;;;;;5091656;28;20035;-81
2021/12/28 04:09:12;;;;;;;549.75;163.50;;;4.70;99.90;;;;;;5092718;28;20040;-80
2021/12/28 04:11:38;;;;;;;589.35;171.00;;;4.80;99.90;;;;;;5091609;28;20107;-81
2021/12/28 04:14:07;;;;;;;632.20;182.93;;;4.80;99.90;;;;;;5076097;28;20100;-81
2021/12/28 04:16:34;;;;;;;493.02;142.02;;;4.90;99.90;;;;;;5074460;28;20068;-83
2021/12/28 04:19:03;;;;;;;615.20;174.10;;;4.90;99.90;;;;;;5073389;28;20040;-83
2021/12/28 04:21:30;;;;;;;560.17;159.52;;;5.00;99.90;;;;;;5090212;28;20036;-82
2021/12/28 04:23:56;;;;;;;490.13;140.35;;;5.00;99.90;;;;;;5073500;28;20436;-82
2021/12/28 04:26:23;;;;;;;460.48;138.98;;;5.00;99.90;;;;;;5080620;28;20579;-83
2021/12/28 04:28:48;;;;;;;526.25;145.25;;;5.00;99.90;;;;;;5070550;28;20046;-83
2021/12/28 04:31:14;;;;;;;548.75;147.55;;;5.10;99.90;;;;;;5089861;28;20032;-83
2021/12/28 04:33:40;;;;;;;522.72;153.50;;;5.10;99.90;;;;;;5090434;28;20028;-83
2021/12/28 04:36:12;;;;;;;482.67;133.07;;;5.00;99.90;;;;;;5089950;28;20044;-83
2021/12/28 04:38:38;;;;;;;536.47;146.88;;;5.00;99.90;;;;;;5073613;28;20120;-83
2021/12/28 04:41:05;;;;;;;531.63;148.82;;;5.00;99.90;;;;;;5089501;28;20076;-83
2021/12/28 04:43:31;;;;;;;514.28;141.25;;;4.90;99.90;;;;;;5073100;28;20112;-83
2021/12/28 04:45:57;;;;;;;528.83;143.73;;;4.90;99.90;;;;;;5089760;28;20043;-82
2021/12/28 04:48:23;;;;;;;552.45;150.77;;;4.80;99.90;;;;;;5090394;28;20573;-83
2021/12/28 04:50:49;;;;;;;561.17;164.35;;;4.80;99.90;;;;;;5072853;28;20036;-83
2021/12/28 04:53:15;;;;;;;523.30;139.43;;;4.70;99.90;;;;;;5073125;28;20405;-82
2021/12/28 04:55:43;;;;;;;438.85;119.30;;;4.70;99.90;;;;;;5089855;28;20048;-83
2021/12/28 04:58:09;;;;;;;541.92;144.60;;;4.70;99.90;;;;;;5089932;28;20051;-82
2021/12/28 05:00:36;;;;;;;455.75;124.97;;;4.70;99.90;;;;;;5072517;28;20040;-82
2021/12/28 05:03:01;;;;;;;421.67;112.10;;;4.60;99.90;;;;;;5090904;28;20432;-83
2021/12/28 05:05:27;;;;;;;432.13;123.50;;;4.60;99.90;;;;;;5076656;28;20042;-83
2021/12/28 05:07:53;;;;;;;492.80;137.70;;;4.60;99.90;;;;;;5093865;28;20529;-83
2021/12/28 05:10:19;;;;;;;519.08;145.63;;;4.60;99.90;;;;;;5076318;28;20127;-83
2021/12/28 05:12:45;;;;;;;462.42;124.50;;;4.60;99.90;;;;;;5093550;28;20059;-84
2021/12/28 05:15:11;;;;;;;522.42;144.52;;;4.50;99.90;;;;;;5093472;28;20043;-83
2021/12/28 05:17:37;;;;;;;599.17;159.63;;;4.50;99.90;;;;;;5076988;28;20068;-83
2021/12/28 05:20:06;;;;;;;482.92;124.15;;;4.50;99.90;;;;;;5084437;28;20130;-83
2021/12/28 05:22:31;;;;;;;494.98;130.30;;;4.50;99.90;;;;;;5093335;28;20044;-83
2021/12/28 05:24:57;;;;;;;488.15;131.40;;;4.50;99.90;;;;;;5093161;28;20126;-83
2021/12/28 05:27:23;;;;;;;535.55;139.38;;;4.40;99.90;;;;;;5077673;28;20031;-83
2021/12/28 05:29:49;;;;;;;476.70;119.13;;;4.40;99.90;;;;;;5076367;28;20051;-83
2021/12/28 05:32:15;;;;;;;412.77;107.90;;;4.40;99.90;;;;;;5076135;28;20386;-83
2021/12/28 05:34:41;;;;;;;488.58;123.72;;;4.40;99.90;;;;;;5075992;28;20036;-84
2021/12/28 05:37:07;;;;;;;510.77;133.77;;;4.40;99.90;;;;;;5093273;28;20482;-83
2021/12/28 05:39:32;;;;;;;558.10;155.55;;;4.40;99.90;;;;;;5092987;28;20051;-84
2021/12/28 05:41:58;;;;;;;453.80;125.20;;;4.40;99.90;;;;;;5075839;28;20047;-84
2021/12/28 05:44:24;;;;;;;515.92;137.68;;;4.50;99.90;;;;;;5093421;28;20122;-83
2021/12/28 05:46:50;;;;;;;535.53;153.98;;;4.40;99.90;;;;;;5092870;28;20078;-83
2021/12/28 05:49:17;;;;;;;294.30;95.32;;;4.40;99.90;;;;;;5092665;28;20032;-83
2021/12/28 05:51:43;;;;;;;319.38;98.03;;;4.40;99.90;;;;;;5076008;28;20437;-83
2021/12/28 05:54:08;;;;;;;405.55;110.97;;;4.40;99.90;;;;;;5092806;28;20036;-83
2021/12/28 05:56:34;;;;;;;485.30;139.48;;;4.40;99.90;;;;;;5092636;28;20455;-84
2021/12/28 05:59:00;;;;;;;385.52;112.10;;;4.50;99.90;;;;;;5092789;28;20115;-84
2021/12/28 06:01:26;;;;;;;399.45;110.15;;;4.50;99.90;;;;;;5092519;28;20036;-83
2021/12/28 06:03:51;;;;;;;466.08;124.90;;;4.50;99.90;;;;;;5092450;28;20028;-84
2021/12/28 06:06:17;;;;;;;391.70;115.68;;;4.40;99.90;;;;;;5091888;28;20489;-83
2021/12/28 06:08:42;;;;;;;312.08;96.32;;;4.40;99.90;;;;;;5092025;28;20036;-83
2021/12/28 06:11:12;;;;;;;293.25;91.65;;;4.50;99.90;;;;;;5092026;28;20110;-84
2021/12/28 06:13:40;;;;;;;386.48;110.20;;;4.40;99.90;;;;;;5091906;28;20032;-84
2021/12/28 06:16:06;;;;;;;303.77;95.72;;;4.40;99.90;;;;;;5092581;28;20445;-84
2021/12/28 06:18:32;;;;;;;368.67;113.72;;;4.40;99.90;;;;;;5075511;28;20043;-84
2021/12/28 06:20:58;;;;;;;305.73;95.30;;;4.40;99.90;;;;;;5091638;28;20032;-83
2021/12/28 06:23:23;;;;;;;248.50;87.88;;;4.40;99.90;;;;;;5092592;28;20131;-84
2021/12/28 06:25:49;;;;;;;234.80;81.35;;;4.40;99.90;;;;;;5092012;28;20052;-83
2021/12/28 06:28:14;;;;;;;194.70;72.55;;;4.40;99.90;;;;;;5081774;28;20039;-84
2021/12/28 06:30:40;;;;;;;172.15;69.00;;;4.40;99.90;;;;;;5099845;28;20039;-84
2021/12/28 06:33:06;;;;;;;167.02;68.18;;;4.30;99.90;;;;;;5082766;28;20035;-84
2021/12/28 06:35:32;;;;;;;174.23;69.10;;;4.40;99.90;;;;;;5099213;28;20125;-83
2021/12/28 06:37:58;;;;;;;149.00;63.60;;;4.40;99.90;;;;;;5083230;28;20490;-83
2021/12/28 06:40:23;;;;;;;131.57;56.55;;;4.40;99.90;;;;;;5076281;28;20040;-82
2021/12/28 06:42:49;;;;;;;146.02;59.08;;;4.40;99.90;;;;;;5076154;28;20040;-83
2021/12/28 06:45:15;;;;;;;120.30;55.65;;;4.40;99.90;;;;;;5076179;28;20036;-83
2021/12/28 06:47:41;;;;;;;123.70;53.25;;;4.40;99.90;;;;;;5092630;28;20032;-84
2021/12/28 06:50:08;;;;;;;113.43;50.97;;;4.40;99.90;;;;;;5076111;28;20032;-83
2021/12/28 06:52:33;;;;;;;120.00;51.15;;;4.40;99.90;;;;;;5091970;28;20101;-83
2021/12/28 06:54:59;;;;;;;104.70;48.15;;;4.50;99.90;;;;;;5076047;28;20486;-83
2021/12/28 06:57:25;;;;;;;104.60;47.28;;;4.50;99.90;;;;;;5074701;28;20470;-83
2021/12/28 06:59:50;;;;;;;87.88;44.38;;;4.50;99.90;;;;;;5067346;28;20032;-83
2021/12/28 07:02:17;;;;;;;75.95;36.65;;;4.50;99.90;;;;;;5075544;28;20047;-84
2021/12/28 07:04:43;;;;;;;75.03;36.70;;;4.50;99.90;;;;;;5092879;28;20036;-83
2021/12/28 07:07:09;;;;;;;66.30;35.72;;;4.50;99.90;;;;;;5091774;28;20539;-82
2021/12/28 07:09:35;;;;;;;75.93;36.60;;;4.60;99.90;;;;;;5076595;28;20061;-84
2021/12/28 07:12:02;;;;;;;69.68;33.80;;;4.60;99.90;;;;;;5074179;28;20398;-83
2021/12/28 07:14:28;;;;;;;68.28;34.58;;;4.70;99.90;;;;;;5074596;28;20122;-83
2021/12/28 07:16:55;;;;;;;55.55;33.45;;;4.70;99.90;;;;;;5091512;28;20128;-83
2021/12/28 07:19:20;;;;;;;55.42;30.15;;;4.70;99.90;;;;;;5075456;28;20035;-84
2021/12/28 07:21:46;;;;;;;55.88;33.42;;;4.70;99.90;;;;;;5074306;28;20028;-84
2021/12/28 07:24:13;;;;;;;57.72;30.70;;;4.70;99.90;;;;;;5091406;28;20434;-84
2021/12/28 07:26:40;;;;;;;58.13;31.48;;;4.70;99.90;;;;;;5090336;28;20506;-84
2021/12/28 07:29:06;;;;;;;58.80;30.00;;;4.70;99.90;;;;;;5091218;28;20243;-84
2021/12/28 07:31:33;;;;;;;55.78;28.23;;;4.70;99.90;;;;;;5074163;28;20036;-83
2021/12/28 07:34:00;;;;;;;44.05;26.58;;;4.70;99.90;;;;;;5091802;28;20095;-84
2021/12/28 07:36:26;;;;;;;51.85;28.77;;;4.70;99.90;;;;;;5091409;28;20087;-84
2021/12/28 07:38:52;;;;;;;45.40;26.05;;;4.70;99.90;;;;;;5090698;28;20101;-83
2021/12/28 07:41:18;;;;;;;53.78;27.98;;;4.70;99.90;;;;;;5091366;28;20059;-84
2021/12/28 07:43:43;;;;;;;52.22;29.63;;;4.70;99.90;;;;;;5091683;28;20482;-84
2021/12/28 07:46:09;;;;;;;48.80;26.05;;;4.70;99.90;;;;;;5090141;28;20046;-83
2021/12/28 07:48:35;;;;;;;43.40;24.02;;;4.60;99.90;;;;;;5090920;28;20040;-84
2021/12/28 07:51:00;;;;;;;39.45;23.20;;;4.60;99.90;;;;;;5074360;28;20035;-84
2021/12/28 07:53:26;;;;;;;38.35;23.25;;;4.60;99.90;;;;;;5091674;28;20301;-83
2021/12/28 07:55:52;;;;;;;42.53;23.35;;;4.60;99.90;;;;;;5091093;28;20100;-84
2021/12/28 07:58:17;;;;;;;38.33;21.35;;;4.60;99.90;;;;;;5091460;28;20040;-83
2021/12/28 08:00:43;;;;;;;39.95;22.02;;;4.60;99.90;;;;;;5091256;28;20047;-83
2021/12/28 08:03:09;;;;;;;39.28;20.33;;;4.60;99.90;;;;;;5073863;28;20044;-84
2021/12/28 08:05:36;;;;;;;47.13;22.13;;;4.50;99.90;;;;;;5091010;28;20040;-84
2021/12/28 08:08:03;;;;;;;39.65;22.25;;;4.50;99.90;;;;;;5074320;28;20091;-84
2021/12/28 08:10:29;;;;;;;43.30;19.88;;;4.50;99.90;;;;;;5074560;28;20115;-84
2021/12/28 08:12:56;;;;;;;37.00;18.70;;;4.60;99.90;;;;;;5090863;28;20486;-84
2021/12/28 08:15:24;;;;;;;39.88;22.83;;;4.60;99.90;;;;;;5090785;28;20130;-84
2021/12/28 08:17:51;;;;;;;33.55;18.95;;;4.70;99.90;;;;;;5091119;28;20047;-83
2021/12/28 08:20:17;;;;;;;36.63;18.58;;;4.70;99.90;;;;;;5090296;28;20040;-83
2021/12/28 08:22:43;;;;;;;39.10;16.50;;;4.80;99.90;;;;;;5073540;28;20035;-83
2021/12/28 08:25:12;;;;;;;30.65;15.07;;;4.80;99.90;;;;;;5090621;28;20093;-84
2021/12/28 08:27:38;;;;;;;37.03;15.20;;;4.80;99.90;;;;;;5090529;28;20044;-83
2021/12/28 08:30:06;;;;;;;27.00;13.48;;;5.00;99.90;;;;;;5090523;28;20040;-83
2021/12/28 08:32:31;;;;;;;27.60;14.25;;;5.10;99.90;;;;;;5072843;28;20072;-83
2021/12/28 08:34:57;;;;;;;21.80;14.38;;;5.10;99.90;;;;;;5090757;28;20093;-84
2021/12/28 08:37:23;;;;;;;30.58;13.95;;;5.20;99.90;;;;;;5091404;28;20406;-84
2021/12/28 08:39:48;;;;;;;26.95;13.60;;;5.30;99.90;;;;;;5094502;28;20032;-83
2021/12/28 08:42:14;;;;;;;24.80;11.85;;;5.30;99.90;;;;;;5077841;28;20449;-84
2021/12/28 08:44:40;;;;;;;35.67;13.32;;;5.30;99.90;;;;;;5094838;28;20555;-83
2021/12/28 08:47:05;;;;;;;20.50;11.45;;;5.40;99.90;;;;;;5094021;28;20068;-82
2021/12/28 08:49:31;;;;;;;24.83;11.23;;;5.40;99.90;;;;;;5094343;28;20402;-82
2021/12/28 08:51:57;;;;;;;23.95;12.15;;;5.40;99.90;;;;;;5094759;28;20113;-82
2021/12/28 08:54:22;;;;;;;29.52;11.65;;;5.50;99.90;;;;;;5094011;28;20039;-83
2021/12/28 08:56:50;;;;;;;26.42;12.75;;;5.50;99.90;;;;;;5084380;28;20039;-82
2021/12/28 08:59:16;;;;;;;24.63;12.35;;;5.50;99.90;;;;;;5093074;28;20479;-82
2021/12/28 09:01:42;;;;;;;28.75;11.63;;;5.50;99.90;;;;;;5092646;28;20525;-82
2021/12/28 09:04:08;;;;;;;25.50;12.20;;;5.50;99.90;;;;;;5094442;28;20048;-83
2021/12/28 09:06:33;;;;;;;26.10;10.43;;;5.50;99.90;;;;;;5092997;28;20035;-82
2021/12/28 09:08:59;;;;;;;17.50;10.25;;;5.50;99.90;;;;;;5093646;28;20063;-82
2021/12/28 09:11:25;;;;;;;24.98;10.40;;;5.50;99.90;;;;;;5093869;28;20028;-83
2021/12/28 09:13:50;;;;;;;21.42;9.95;;;5.50;99.90;;;;;;5076713;28;20395;-83
2021/12/28 09:16:16;;;;;;;23.60;9.57;;;5.40;99.90;;;;;;5093589;28;20040;-83
2021/12/28 09:18:42;;;;;;;19.55;9.15;;;5.50;99.90;;;;;;5076494;28;20036;-83
2021/12/28 09:21:09;;;;;;;22.35;10.48;;;5.50;99.90;;;;;;5093714;28;20114;-84
2021/12/28 09:23:34;;;;;;;22.98;12.43;;;5.40;99.90;;;;;;5076616;28;20040;-84
2021/12/28 09:26:00;;;;;;;21.48;9.48;;;5.50;99.90;;;;;;5076386;28;20511;-84
2021/12/28 09:28:26;;;;;;;19.55;9.50;;;5.40;99.90;;;;;;5092515;28;20032;-84
2021/12/28 09:30:51;;;;;;;21.48;10.13;;;5.50;99.90;;;;;;5092886;28;20481;-84
2021/12/28 09:33:18;;;;;;;22.10;11.70;;;5.60;99.90;;;;;;5093201;28;20059;-83
2021/12/28 09:35:44;;;;;;;20.38;9.65;;;5.60;99.90;;;;;;5092995;28;20097;-84
2021/12/28 09:38:10;;;;;;;19.80;9.32;;;5.70;99.90;;;;;;5093341;28;20044;-84
2021/12/28 09:40:36;;;;;;;20.85;9.52;;;5.80;99.90;;;;;;5093168;28;20043;-83
2021/12/28 09:43:07;;;;;;;18.52;8.80;;;5.80;99.90;;;;;;5093289;28;20040;-84
2021/12/28 09:45:33;;;;;;;15.73;9.35;;;5.90;99.90;;;;;;5092693;28;20040;-84
2021/12/28 09:47:59;;;;;;;17.27;8.10;;;6.00;99.90;;;;;;5092746;28;20028;-85
2021/12/28 09:50:25;;;;;;;22.95;7.90;;;6.00;99.90;;;;;;5092671;28;20364;-85
2021/12/28 09:52:52;;;;;;;17.50;6.68;;;6.10;99.90;;;;;;5093244;28;20039;-84
2021/12/28 09:55:21;;;;;;;18.77;7.57;;;6.10;99.90;;;;;;5093147;28;20089;-83
2021/12/28 09:57:48;;;;;;;14.90;6.97;;;6.20;99.90;;;;;;5075358;28;20094;-84
2021/12/28 10:00:15;;;;;;;28.77;7.45;;;6.20;99.90;;;;;;5092986;28;20040;-84
2021/12/28 10:02:41;;;;;;;18.83;7.00;;;6.30;99.90;;;;;;5075586;28;20046;-84
2021/12/28 10:05:12;;;;;;;20.92;7.35;;;6.30;99.90;;;;;;5075765;28;20477;-84
2021/12/28 10:07:44;;;;;;;19.70;7.18;;;6.30;99.90;;;;;;5092208;28;20481;-84
2021/12/28 10:10:10;;;;;;;16.48;6.20;;;6.30;99.90;;;;;;5092619;28;20466;-85
2021/12/28 10:12:39;;;;;;;13.55;5.80;;;6.40;99.90;;;;;;5092553;28;20124;-84
2021/12/28 10:15:09;;;;;;;16.70;7.88;;;6.40;99.90;;;;;;5074809;28;20040;-83
2021/12/28 10:17:36;;;;;;;17.35;8.05;;;6.40;99.90;;;;;;5078338;28;20441;-80
2021/12/28 10:20:13;;;;;;;18.77;5.97;;;6.50;99.90;;;;;;5094451;28;20327;-80
2021/12/28 10:22:42;;;;;;;15.50;5.68;;;6.50;99.90;;;;;;5093858;28;20498;-80
2021/12/28 10:25:19;;;;;;;22.15;6.45;;;6.50;99.90;;;;;;5076260;28;20078;-80
2021/12/28 10:27:57;;;;;;;18.05;5.90;;;6.50;99.90;;;;;;5093130;28;20032;-80
2021/12/28 10:30:29;;;;;;;14.35;5.20;;;6.50;99.90;;;;;;5094543;28;20043;-81
2021/12/28 10:33:02;;;;;;;16.17;5.45;;;6.60;99.90;;;;;;5093416;28;20039;-80
2021/12/28 10:35:31;;;;;;;15.15;6.88;;;6.70;99.90;;;;;;5086638;28;20032;-80
2021/12/28 10:38:04;;;;;;;13.85;5.63;;;6.70;99.90;;;;;;5093385;28;20524;-80
2021/12/28 10:40:39;;;;;;;17.80;5.95;;;6.80;99.90;;;;;;5092020;28;20123;-80
2021/12/28 10:43:11;;;;;;;15.80;6.35;;;6.80;99.90;;;;;;5092325;28;20048;-80
2021/12/28 10:45:41;;;;;;;21.95;7.05;;;6.80;99.90;;;;;;5092322;28;20032;-81
2021/12/28 10:48:12;;;;;;;12.73;5.57;;;6.90;99.90;;;;;;5077376;28;20040;-80
2021/12/28 10:51:01;;;;;;;14.23;5.18;;;6.90;99.90;;;;;;5078867;28;20132;-80
2021/12/28 10:53:38;;;;;;;14.13;5.85;;;6.90;99.90;;;;;;5077723;28;20035;-80
2021/12/28 10:56:06;;;;;;;17.45;5.65;;;7.00;99.90;;;;;;5095044;28;20047;-80
2021/12/28 10:58:40;;;;;;;18.23;5.80;;;7.00;99.90;;;;;;5094827;28;20040;-80
2021/12/28 11:01:10;;;;;;;18.52;8.55;;;7.10;99.90;;;;;;5094174;28;20044;-80
2021/12/28 11:03:38;;;;;;;18.83;5.90;;;7.10;99.90;;;;;;5094207;28;20398;-80
2021/12/28 11:06:13;;;;;;;20.48;7.53;;;7.10;99.90;;;;;;5094149;28;20082;-82
2021/12/28 11:08:39;;;;;;;21.35;6.30;;;7.10;99.90;;;;;;5078891;28;20036;-82
2021/12/28 11:11:10;;;;;;;14.68;5.72;;;7.00;99.90;;;;;;5077309;28;20036;-82
2021/12/28 11:13:36;;;;;;;14.85;6.50;;;7.00;99.90;;;;;;5079075;28;20107;-81
2021/12/28 11:16:05;;;;;;;17.90;6.88;;;7.10;99.90;;;;;;5092789;28;20399;-83
2021/12/28 11:18:34;;;;;;;18.20;6.28;;;7.00;99.90;;;;;;5095413;28;20058;-82
2021/12/28 11:21:12;;;;;;;16.77;6.10;;;7.10;99.90;;;;;;5092969;28;20142;-83
2021/12/28 11:23:38;;;;;;;19.88;6.32;;;7.10;99.90;;;;;;5094823;28;20481;-82
2021/12/28 11:26:19;;;;;;;16.33;5.82;;;7.10;99.90;;;;;;5092303;28;20042;-83
2021/12/28 11:28:55;;;;;;;15.48;6.72;;;7.10;99.90;;;;;;5076024;28;20506;-82
2021/12/28 11:31:24;;;;;;;23.58;7.32;;;7.10;99.90;;;;;;5074694;28;20140;-82
2021/12/28 11:33:54;;;;;;;13.63;5.93;;;7.20;99.90;;;;;;5092671;28;20044;-82
2021/12/28 11:36:29;;;;;;;18.98;7.00;;;7.10;99.90;;;;;;5075476;28;20170;-82
2021/12/28 11:38:56;;;;;;;14.57;5.65;;;7.20;99.90;;;;;;5092843;28;20047;-83
2021/12/28 11:41:22;;;;;;;13.80;6.88;;;7.20;99.90;;;;;;5092968;28;20269;-82
2021/12/28 11:43:48;;;;;;;15.70;6.68;;;7.30;99.90;;;;;;5075641;28;20116;-83
2021/12/28 11:46:15;;;;;;;23.27;7.78;;;7.20;99.90;;;;;;5077159;28;20047;-82
2021/12/28 11:48:42;;;;;;;18.65;7.07;;;7.30;99.90;;;;;;5093183;28;20035;-82
2021/12/28 11:51:10;;;;;;;18.98;8.05;;;7.30;99.90;;;;;;5092981;28;20066;-82
2021/12/28 11:53:40;;;;;;;18.70;6.95;;;7.30;99.90;;;;;;5092770;28;20069;-83
2021/12/28 11:56:07;;;;;;;16.88;7.63;;;7.40;99.90;;;;;;5092943;28;20047;-83
2021/12/28 11:59:00;;;;;;;23.65;6.78;;;7.30;99.90;;;;;;5091869;28;20077;-83
2021/12/28 12:01:42;;;;;;;16.60;6.85;;;7.40;99.90;;;;;;5076249;28;20078;-83
2021/12/28 12:04:29;;;;;;;15.27;7.78;;;7.40;99.90;;;;;;5092873;28;20043;-83
2021/12/28 12:06:59;;;;;;;13.57;7.15;;;7.40;99.90;;;;;;5075560;28;20457;-82
2021/12/28 12:09:25;;;;;;;15.90;7.50;;;7.30;99.90;;;;;;5093233;28;20031;-83
2021/12/28 12:12:10;;;;;;;15.35;7.55;;;7.30;99.90;;;;;;5090740;28;20498;-83
2021/12/28 12:14:51;;;;;;;14.80;8.80;;;7.30;99.90;;;;;;5091773;28;20040;-82
2021/12/28 12:17:29;;;;;;;20.33;9.82;;;7.30;99.90;;;;;;5091365;28;20471;-82
2021/12/28 12:19:56;;;;;;;21.58;8.35;;;7.40;99.90;;;;;;5077532;28;20054;-83
2021/12/28 12:22:31;;;;;;;17.83;9.57;;;7.40;99.90;;;;;;5094408;28;20040;-82
2021/12/28 12:25:01;;;;;;;15.73;8.02;;;7.40;99.90;;;;;;5094305;28;20517;-82
2021/12/28 12:27:52;;;;;;;15.02;8.77;;;7.40;99.90;;;;;;5093770;28;20040;-85
2021/12/28 12:30:17;;;;;;;18.25;9.98;;;7.40;99.90;;;;;;5092341;28;20040;-80
2021/12/28 12:33:07;;;;;;;15.27;9.00;;;7.40;99.90;;;;;;5093003;28;20047;-80
2021/12/28 12:35:59;;;;;;;30.15;11.90;;;7.40;99.90;;;;;;5091931;28;20043;-81
2021/12/28 12:38:25;;;;;;;18.38;9.13;;;7.40;99.90;;;;;;5098373;28;20100;-81